sensor_id;sensor_type;location;lat;lon;timestamp;pressure;altitude;pressure_sealevel;temperature;humidity
35878;BME280;21982;49.804;24.072;2022-12-10T00:01:54;95704.34;;;3.36;75.90
35878;BME280;21982;49.804;24.072;2022-12-10T00:04:20;95816.16;;;4.08;76.05
35878;BME280;21982;49.804;24.072;2022-12-10T00:06:46;95773.75;;;3.83;76.18
35878;BME280;21982;49.804;24.072;2022-12-10T00:09:15;95778.69;;;3.93;75.94
35878;BME280;21982;49.804;24.072;2022-12-10T00:11:41;95805.03;;;4.06;76.44
35878;BME280;21982;49.804;24.072;2022-12-10T00:14:08;95720.09;;;3.58;76.35
35878;BME280;21982;49.804;24.072;2022-12-10T00:16:34;95784.63;;;4.01;76.09
35878;BME280;21982;49.804;24.072;2022-12-10T00:19:00;95789.34;;;4.06;75.99
35878;BME280;21982;49.804;24.072;2022-12-10T00:21:29;95750.19;;;3.83;75.96
35878;BME280;21982;49.804;24.072;2022-12-10T00:23:56;95776.88;;;3.93;76.45
35878;BME280;21982;49.804;24.072;2022-12-10T00:26:28;95788.41;;;4.14;76.06
35878;BME280;21982;49.804;24.072;2022-12-10T00:28:54;95767.66;;;3.97;76.48
35878;BME280;21982;49.804;24.072;2022-12-10T00:31:26;95729.81;;;3.79;76.22
35878;BME280;21982;49.804;24.072;2022-12-10T00:33:54;95764.94;;;4.06;76.01
35878;BME280;21982;49.804;24.072;2022-12-10T00:36:29;95778.97;;;4.19;75.79
35878;BME280;21982;49.804;24.072;2022-12-10T00:38:55;95786.44;;;4.16;76.35
35878;BME280;21982;49.804;24.072;2022-12-10T00:41:21;95775.50;;;4.12;76.58
35878;BME280;21982;49.804;24.072;2022-12-10T00:43:47;95682.25;;;3.60;76.21
35878;BME280;21982;49.804;24.072;2022-12-10T00:46:14;95787.81;;;4.33;76.07
35878;BME280;21982;49.804;24.072;2022-12-10T00:48:41;95763.88;;;4.21;76.50
35878;BME280;21982;49.804;24.072;2022-12-10T00:51:18;95774.63;;;4.26;76.04
35878;BME280;21982;49.804;24.072;2022-12-10T00:53:45;95772.81;;;4.27;76.43
35878;BME280;21982;49.804;24.072;2022-12-10T00:56:12;95768.09;;;4.16;76.48
35878;BME280;21982;49.804;24.072;2022-12-10T00:58:39;95717.03;;;3.90;76.54
35878;BME280;21982;49.804;24.072;2022-12-10T01:01:19;95744.75;;;4.21;76.73
35878;BME280;21982;49.804;24.072;2022-12-10T01:03:47;95757.16;;;4.33;76.68
35878;BME280;21982;49.804;24.072;2022-12-10T01:06:14;95763.34;;;4.47;76.83
35878;BME280;21982;49.804;24.072;2022-12-10T01:08:41;95753.25;;;4.44;76.26
35878;BME280;21982;49.804;24.072;2022-12-10T01:11:09;95756.72;;;4.51;76.16
35878;BME280;21982;49.804;24.072;2022-12-10T01:13:34;95676.72;;;4.06;76.39
35878;BME280;21982;49.804;24.072;2022-12-10T01:16:05;95710.19;;;4.32;76.00
35878;BME280;21982;49.804;24.072;2022-12-10T01:18:31;95685.72;;;4.25;76.37
35878;BME280;21982;49.804;24.072;2022-12-10T01:21:05;95741.34;;;4.69;75.57
35878;BME280;21982;49.804;24.072;2022-12-10T01:23:35;95759.22;;;4.81;75.66
35878;BME280;21982;49.804;24.072;2022-12-10T01:26:04;95746.91;;;4.81;75.83
35878;BME280;21982;49.804;24.072;2022-12-10T01:28:31;95733.13;;;4.72;76.00
35878;BME280;21982;49.804;24.072;2022-12-10T01:31:00;95709.09;;;4.69;75.83
35878;BME280;21982;49.804;24.072;2022-12-10T01:33:26;95688.34;;;4.46;75.51
35878;BME280;21982;49.804;24.072;2022-12-10T01:35:52;95704.41;;;4.64;75.86
35878;BME280;21982;49.804;24.072;2022-12-10T01:38:17;95633.94;;;4.27;75.69
35878;BME280;21982;49.804;24.072;2022-12-10T01:40:42;95723.88;;;4.77;75.38
35878;BME280;21982;49.804;24.072;2022-12-10T01:43:13;95714.25;;;4.84;75.13
35878;BME280;21982;49.804;24.072;2022-12-10T01:45:38;95704.41;;;4.64;75.80
35878;BME280;21982;49.804;24.072;2022-12-10T01:48:04;95708.31;;;4.75;75.98
35878;BME280;21982;49.804;24.072;2022-12-10T01:50:29;95637.06;;;4.37;75.70
35878;BME280;21982;49.804;24.072;2022-12-10T01:52:55;95703.75;;;4.84;75.84
35878;BME280;21982;49.804;24.072;2022-12-10T01:58:08;95670.19;;;4.72;75.62
35878;BME280;21982;49.804;24.072;2022-12-10T02:00:46;95666.38;;;4.75;75.40
35878;BME280;21982;49.804;24.072;2022-12-10T02:03:20;95644.91;;;4.65;75.65
35878;BME280;21982;49.804;24.072;2022-12-10T02:05:51;95670.56;;;4.69;75.81
35878;BME280;21982;49.804;24.072;2022-12-10T02:08:32;95664.19;;;4.85;75.20
35878;BME280;21982;49.804;24.072;2022-12-10T02:16:24;95632.72;;;4.79;75.31
35878;BME280;21982;49.804;24.072;2022-12-10T02:19:07;95641.03;;;4.89;75.44
35878;BME280;21982;49.804;24.072;2022-12-10T02:21:40;95628.28;;;4.86;75.50
35878;BME280;21982;49.804;24.072;2022-12-10T02:24:13;95593.28;;;4.65;75.54
35878;BME280;21982;49.804;24.072;2022-12-10T02:29:17;95639.41;;;4.88;75.37
35878;BME280;21982;49.804;24.072;2022-12-10T02:31:46;95635.63;;;4.97;75.61
35878;BME280;21982;49.804;24.072;2022-12-10T02:34:15;95642.91;;;5.01;75.44
35878;BME280;21982;49.804;24.072;2022-12-10T02:36:44;95621.91;;;4.95;75.45
35878;BME280;21982;49.804;24.072;2022-12-10T02:39:14;95629.56;;;4.96;75.54
35878;BME280;21982;49.804;24.072;2022-12-10T02:41:46;95605.09;;;4.83;75.49
35878;BME280;21982;49.804;24.072;2022-12-10T02:44:14;95596.00;;;4.79;75.54
35878;BME280;21982;49.804;24.072;2022-12-10T02:46:43;95556.31;;;4.47;75.61
35878;BME280;21982;49.804;24.072;2022-12-10T02:49:13;95638.06;;;4.98;75.15
35878;BME280;21982;49.804;24.072;2022-12-10T02:51:40;95612.16;;;4.82;75.91
35878;BME280;21982;49.804;24.072;2022-12-10T02:54:32;95622.50;;;4.97;75.76
35878;BME280;21982;49.804;24.072;2022-12-10T02:56:58;95581.84;;;4.73;75.69
35878;BME280;21982;49.804;24.072;2022-12-10T02:59:27;95612.63;;;4.99;75.83
35878;BME280;21982;49.804;24.072;2022-12-10T03:05:17;95596.06;;;4.92;75.67
35878;BME280;21982;49.804;24.072;2022-12-10T03:07:53;95578.06;;;4.89;75.63
35878;BME280;21982;49.804;24.072;2022-12-10T03:10:26;95596.50;;;5.02;75.78
35878;BME280;21982;49.804;24.072;2022-12-10T03:12:59;95594.13;;;5.07;75.73
35878;BME280;21982;49.804;24.072;2022-12-10T03:15:26;95577.88;;;4.90;75.55
35878;BME280;21982;49.804;24.072;2022-12-10T03:17:54;95586.78;;;4.96;75.72
35878;BME280;21982;49.804;24.072;2022-12-10T03:20:22;95607.06;;;5.22;75.95
35878;BME280;21982;49.804;24.072;2022-12-10T03:22:49;95571.88;;;4.96;75.92
35878;BME280;21982;49.804;24.072;2022-12-10T03:25:18;95597.38;;;5.22;75.88
35878;BME280;21982;49.804;24.072;2022-12-10T05:21:06;95673.16;;;2.91;79.39
35878;BME280;21982;49.804;24.072;2022-12-10T05:23:33;95669.78;;;3.26;79.12
35878;BME280;21982;49.804;24.072;2022-12-10T05:26:02;95609.63;;;3.26;79.40
35878;BME280;21982;49.804;24.072;2022-12-10T05:28:30;95675.28;;;4.03;79.39
35878;BME280;21982;49.804;24.072;2022-12-10T05:30:58;95627.69;;;4.00;79.09
35878;BME280;21982;49.804;24.072;2022-12-10T05:33:24;95680.88;;;4.43;79.00
35878;BME280;21982;49.804;24.072;2022-12-10T05:35:58;95662.75;;;4.48;78.87
35878;BME280;21982;49.804;24.072;2022-12-10T05:38:24;95693.28;;;4.84;79.11
35878;BME280;21982;49.804;24.072;2022-12-10T05:40:50;95677.28;;;4.79;78.86
35878;BME280;21982;49.804;24.072;2022-12-10T05:43:16;95655.94;;;4.82;78.74
35878;BME280;21982;49.804;24.072;2022-12-10T05:45:41;95662.38;;;4.86;78.61
35878;BME280;21982;49.804;24.072;2022-12-10T05:48:11;95709.84;;;5.25;78.50
35878;BME280;21982;49.804;24.072;2022-12-10T05:50:37;95710.25;;;5.29;78.75
35878;BME280;21982;49.804;24.072;2022-12-10T05:53:03;95704.81;;;5.30;78.59
35878;BME280;21982;49.804;24.072;2022-12-10T05:55:28;95719.81;;;5.36;78.91
35878;BME280;21982;49.804;24.072;2022-12-10T05:57:54;95706.03;;;5.28;78.56
35878;BME280;21982;49.804;24.072;2022-12-10T06:00:20;95724.50;;;5.48;78.48
35878;BME280;21982;49.804;24.072;2022-12-10T06:02:49;95723.13;;;5.52;78.50
35878;BME280;21982;49.804;24.072;2022-12-10T06:05:17;95678.53;;;5.24;78.17
35878;BME280;21982;49.804;24.072;2022-12-10T06:07:42;95730.00;;;5.59;78.60
35878;BME280;21982;49.804;24.072;2022-12-10T06:10:08;95684.78;;;5.23;77.90
35878;BME280;21982;49.804;24.072;2022-12-10T06:12:34;95671.44;;;5.11;77.95
35878;BME280;21982;49.804;24.072;2022-12-10T06:14:59;95746.50;;;5.47;77.92
35878;BME280;21982;49.804;24.072;2022-12-10T06:17:25;95740.25;;;5.48;77.84
35878;BME280;21982;49.804;24.072;2022-12-10T06:19:50;95727.91;;;5.42;77.49
35878;BME280;21982;49.804;24.072;2022-12-10T06:22:15;95689.03;;;5.17;77.57
35878;BME280;21982;49.804;24.072;2022-12-10T06:24:41;95749.19;;;5.53;77.55
35878;BME280;21982;49.804;24.072;2022-12-10T06:27:06;95747.13;;;5.49;77.19
35878;BME280;21982;49.804;24.072;2022-12-10T06:29:32;95762.69;;;5.57;77.76
35878;BME280;21982;49.804;24.072;2022-12-10T06:31:57;95757.88;;;5.60;77.39
35878;BME280;21982;49.804;24.072;2022-12-10T06:34:22;95706.69;;;5.36;77.21
35878;BME280;21982;49.804;24.072;2022-12-10T06:36:48;95740.38;;;5.74;76.97
35878;BME280;21982;49.804;24.072;2022-12-10T06:39:13;95742.25;;;5.87;76.75
35878;BME280;21982;49.804;24.072;2022-12-10T06:41:39;95749.97;;;5.95;77.23
35878;BME280;21982;49.804;24.072;2022-12-10T06:44:08;95753.63;;;6.00;76.79
35878;BME280;21982;49.804;24.072;2022-12-10T06:46:34;95748.81;;;6.11;76.75
35878;BME280;21982;49.804;24.072;2022-12-10T06:48:59;95736.72;;;6.23;76.20
35878;BME280;21982;49.804;24.072;2022-12-10T06:51:25;95713.28;;;6.21;75.85
35878;BME280;21982;49.804;24.072;2022-12-10T06:53:50;95744.06;;;6.54;75.99
35878;BME280;21982;49.804;24.072;2022-12-10T06:56:19;95746.47;;;6.55;75.67
35878;BME280;21982;49.804;24.072;2022-12-10T06:58:45;95741.41;;;6.41;75.72
35878;BME280;21982;49.804;24.072;2022-12-10T07:01:15;95767.72;;;6.54;75.51
35878;BME280;21982;49.804;24.072;2022-12-10T07:03:41;95766.28;;;6.51;75.32
35878;BME280;21982;49.804;24.072;2022-12-10T07:06:11;95733.88;;;6.31;74.87
35878;BME280;21982;49.804;24.072;2022-12-10T07:08:36;95768.94;;;6.58;75.17
35878;BME280;21982;49.804;24.072;2022-12-10T07:11:07;95777.63;;;6.52;75.07
35878;BME280;21982;49.804;24.072;2022-12-10T07:13:33;95772.53;;;6.37;74.84
35878;BME280;21982;49.804;24.072;2022-12-10T11:04:05;95754.28;;;1.38;79.03
35878;BME280;21982;49.804;24.072;2022-12-10T11:06:44;95756.16;;;1.83;79.34
35878;BME280;21982;49.804;24.072;2022-12-10T11:09:32;95913.13;;;3.18;78.62
35878;BME280;21982;49.804;24.072;2022-12-10T11:19:34;95822.03;;;3.22;78.37
35878;BME280;21982;49.804;24.072;2022-12-10T11:22:21;95925.88;;;3.88;78.35
35878;BME280;21982;49.804;24.072;2022-12-10T11:24:47;95856.25;;;3.50;78.60
35878;BME280;21982;49.804;24.072;2022-12-10T11:30:03;95952.34;;;4.23;78.11
35878;BME280;21982;49.804;24.072;2022-12-10T11:32:36;95957.84;;;4.28;78.02
35878;BME280;21982;49.804;24.072;2022-12-10T11:56:24;95957.34;;;4.68;76.46
35878;BME280;21982;49.804;24.072;2022-12-10T12:09:44;95965.59;;;4.65;75.85
35878;BME280;21982;49.804;24.072;2022-12-10T12:15:22;95962.50;;;4.77;75.79
35878;BME280;21982;49.804;24.072;2022-12-10T12:18:23;95970.38;;;4.77;75.80
35878;BME280;21982;49.804;24.072;2022-12-10T12:20:54;95980.59;;;4.71;75.81
35878;BME280;21982;49.804;24.072;2022-12-10T12:26:38;95796.53;;;3.68;75.34
35878;BME280;21982;49.804;24.072;2022-12-10T12:32:09;95867.19;;;4.12;75.21
35878;BME280;21982;49.804;24.072;2022-12-10T12:37:02;95805.50;;;3.95;74.93
35878;BME280;21982;49.804;24.072;2022-12-10T12:40:00;95875.25;;;4.32;75.22
35878;BME280;21982;49.804;24.072;2022-12-10T12:43:04;95971.75;;;4.94;75.11
35878;BME280;21982;49.804;24.072;2022-12-10T12:45:39;95986.09;;;5.13;75.04
35878;BME280;21982;49.804;24.072;2022-12-10T12:48:22;95937.34;;;4.82;74.41
35878;BME280;21982;49.804;24.072;2022-12-10T12:53:39;95974.19;;;4.95;74.53
35878;BME280;21982;49.804;24.072;2022-12-10T12:56:25;95999.84;;;5.15;74.40
35878;BME280;21982;49.804;24.072;2022-12-10T13:02:22;95953.81;;;4.76;73.89
35878;BME280;21982;49.804;24.072;2022-12-10T13:04:52;95923.81;;;4.64;74.10
35878;BME280;21982;49.804;24.072;2022-12-10T13:10:10;95931.41;;;4.74;73.61
35878;BME280;21982;49.804;24.072;2022-12-10T13:13:16;96012.16;;;5.14;73.70
35878;BME280;21982;49.804;24.072;2022-12-10T13:15:46;95976.69;;;4.82;74.00
35878;BME280;21982;49.804;24.072;2022-12-10T13:20:44;96031.00;;;5.24;73.82
35878;BME280;21982;49.804;24.072;2022-12-10T13:36:09;95901.22;;;3.97;73.24
35878;BME280;21982;49.804;24.072;2022-12-10T13:38:40;96018.81;;;4.81;73.81
35878;BME280;21982;49.804;24.072;2022-12-10T13:41:07;96022.81;;;4.77;73.51
35878;BME280;21982;49.804;24.072;2022-12-10T13:43:58;96033.31;;;4.77;73.48
35878;BME280;21982;49.804;24.072;2022-12-10T13:47:05;96027.06;;;4.78;73.13
35878;BME280;21982;49.804;24.072;2022-12-10T13:52:18;96026.44;;;4.76;73.39
35878;BME280;21982;49.804;24.072;2022-12-10T14:00:23;96007.47;;;4.44;73.18
35878;BME280;21982;49.804;24.072;2022-12-10T14:03:14;95974.56;;;4.27;
35878;BME280;21982;49.804;24.072;2022-12-10T14:05:50;96024.06;;;4.51;73.53
35878;BME280;21982;49.804;24.072;2022-12-10T14:08:31;95985.97;;;4.34;72.94
35878;BME280;21982;49.804;24.072;2022-12-10T14:10:59;96020.03;;;4.49;72.93
35878;BME280;21982;49.804;24.072;2022-12-10T14:13:34;95949.84;;;4.15;72.96
35878;BME280;21982;49.804;24.072;2022-12-10T14:16:02;95893.72;;;3.65;72.93
35878;BME280;21982;49.804;24.072;2022-12-10T14:18:28;95821.75;;;3.02;72.92
35878;BME280;21982;49.804;24.072;2022-12-10T14:20:55;96026.34;;;4.25;72.91
35878;BME280;21982;49.804;24.072;2022-12-10T14:23:29;96033.56;;;4.23;72.80
35878;BME280;21982;49.804;24.072;2022-12-10T14:26:36;96016.69;;;4.11;72.90
35878;BME280;21982;49.804;24.072;2022-12-10T14:29:22;95875.91;;;3.31;72.85
35878;BME280;21982;49.804;24.072;2022-12-10T14:31:48;96027.06;;;4.19;73.55
35878;BME280;21982;49.804;24.072;2022-12-10T14:34:18;96031.56;;;4.25;73.29
35878;BME280;21982;49.804;24.072;2022-12-10T14:36:48;96020.09;;;4.26;73.35
35878;BME280;21982;49.804;24.072;2022-12-10T14:39:16;96023.38;;;4.28;73.53
35878;BME280;21982;49.804;24.072;2022-12-10T14:41:42;95906.16;;;3.48;73.32
35878;BME280;21982;49.804;24.072;2022-12-10T14:44:12;95909.59;;;3.49;73.32
35878;BME280;21982;49.804;24.072;2022-12-10T14:46:39;95961.53;;;3.75;73.17
35878;BME280;21982;49.804;24.072;2022-12-10T14:49:07;96022.38;;;4.14;73.22
35878;BME280;21982;49.804;24.072;2022-12-10T14:51:36;95999.34;;;4.10;73.05
35878;BME280;21982;49.804;24.072;2022-12-10T14:54:02;96003.75;;;4.09;72.74
35878;BME280;21982;49.804;24.072;2022-12-10T14:56:32;95924.06;;;3.59;72.68
35878;BME280;21982;49.804;24.072;2022-12-10T14:59:10;95961.91;;;3.86;72.58
35878;BME280;21982;49.804;24.072;2022-12-10T15:01:41;96013.53;;;4.15;72.99
35878;BME280;21982;49.804;24.072;2022-12-10T15:04:13;95983.66;;;3.87;72.98
35878;BME280;21982;49.804;24.072;2022-12-10T15:06:39;95873.00;;;3.11;73.26
35878;BME280;21982;49.804;24.072;2022-12-10T20:48:11;95957.41;;;-0.01;78.23
35878;BME280;21982;49.804;24.072;2022-12-10T20:50:39;95923.66;;;0.24;78.86
35878;BME280;21982;49.804;24.072;2022-12-10T20:53:05;95946.72;;;0.77;78.87
35878;BME280;21982;49.804;24.072;2022-12-10T20:55:34;95579.00;;;-1.29;78.50
35878;BME280;21982;49.804;24.072;2022-12-10T20:58:10;95382.53;;;-2.46;78.63
35878;BME280;21982;49.804;24.072;2022-12-10T21:00:38;95581.06;;;-0.83;78.60
35878;BME280;21982;49.804;24.072;2022-12-10T21:03:06;95836.50;;;0.93;78.97
35878;BME280;21982;49.804;24.072;2022-12-10T21:05:32;95921.13;;;1.62;78.86
35878;BME280;21982;49.804;24.072;2022-12-10T21:07:57;95927.00;;;1.72;78.28
35878;BME280;21982;49.804;24.072;2022-12-10T21:10:23;95918.63;;;1.77;78.12
35878;BME280;21982;49.804;24.072;2022-12-10T21:13:12;95864.06;;;1.59;78.14
35878;BME280;21982;49.804;24.072;2022-12-10T21:15:38;95788.88;;;1.15;78.10
35878;BME280;21982;49.804;24.072;2022-12-10T21:18:03;95810.94;;;1.44;77.94
35878;BME280;21982;49.804;24.072;2022-12-10T21:20:29;95845.31;;;1.63;77.68
35878;BME280;21982;49.804;24.072;2022-12-10T21:22:54;95884.03;;;1.83;77.75
35878;BME280;21982;49.804;24.072;2022-12-10T21:25:20;95896.22;;;2.07;77.87
35878;BME280;21982;49.804;24.072;2022-12-10T21:27:45;95870.50;;;1.79;77.89
35878;BME280;21982;49.804;24.072;2022-12-10T21:30:11;95911.88;;;2.07;78.11
35878;BME280;21982;49.804;24.072;2022-12-10T21:32:37;95857.78;;;1.84;77.13
35878;BME280;21982;49.804;24.072;2022-12-10T21:35:03;95896.47;;;2.20;77.15
35878;BME280;21982;49.804;24.072;2022-12-10T21:37:29;95907.38;;;2.23;77.58
35878;BME280;21982;49.804;24.072;2022-12-10T21:39:55;95791.84;;;1.59;77.11
35878;BME280;21982;49.804;24.072;2022-12-10T21:42:22;95795.47;;;1.81;76.68
